sensor_id;sensor_type;location;lat;lon;timestamp;P1;durP1;ratioP1;P2;durP2;ratioP2
38843;SDS011;24596;48.080;8.362;2024-01-15T00:01:01;31.63;;;8.93;;
38843;SDS011;24596;48.080;8.362;2024-01-15T00:03:26;29.52;;;10.57;;
38843;SDS011;24596;48.080;8.362;2024-01-15T00:05:52;36.78;;;12.93;;
38843;SDS011;24596;48.080;8.362;2024-01-15T00:08:17;31.30;;;11.50;;
38843;SDS011;24596;48.080;8.362;2024-01-15T00:10:42;32.22;;;11.25;;
38843;SDS011;24596;48.080;8.362;2024-01-15T00:13:07;31.55;;;12.80;;
38843;SDS011;24596;48.080;8.362;2024-01-15T00:15:33;34.08;;;12.32;;
38843;SDS011;24596;48.080;8.362;2024-01-15T00:17:58;28.58;;;11.25;;
38843;SDS011;24596;48.080;8.362;2024-01-15T00:20:23;29.50;;;10.52;;
38843;SDS011;24596;48.080;8.362;2024-01-15T00:22:48;37.45;;;12.18;;
38843;SDS011;24596;48.080;8.362;2024-01-15T00:25:14;31.58;;;11.55;;
38843;SDS011;24596;48.080;8.362;2024-01-15T00:27:39;27.02;;;9.68;;
38843;SDS011;24596;48.080;8.362;2024-01-15T00:30:04;23.63;;;8.75;;
38843;SDS011;24596;48.080;8.362;2024-01-15T00:32:30;30.67;;;9.73;;
38843;SDS011;24596;48.080;8.362;2024-01-15T00:34:55;28.23;;;10.90;;
38843;SDS011;24596;48.080;8.362;2024-01-15T00:37:20;29.27;;;10.65;;
38843;SDS011;24596;48.080;8.362;2024-01-15T00:39:45;27.20;;;9.90;;
38843;SDS011;24596;48.080;8.362;2024-01-15T00:42:11;27.02;;;9.82;;
38843;SDS011;24596;48.080;8.362;2024-01-15T00:44:36;26.10;;;10.20;;
38843;SDS011;24596;48.080;8.362;2024-01-15T00:47:01;25.88;;;9.30;;
38843;SDS011;24596;48.080;8.362;2024-01-15T00:49:27;26.38;;;9.48;;
38843;SDS011;24596;48.080;8.362;2024-01-15T00:51:52;25.50;;;9.15;;
38843;SDS011;24596;48.080;8.362;2024-01-15T00:54:17;26.67;;;8.73;;
38843;SDS011;24596;48.080;8.362;2024-01-15T00:56:42;23.33;;;8.05;;
38843;SDS011;24596;48.080;8.362;2024-01-15T00:59:07;23.25;;;8.38;;
38843;SDS011;24596;48.080;8.362;2024-01-15T01:01:35;21.88;;;8.40;;
38843;SDS011;24596;48.080;8.362;2024-01-15T01:04:00;21.75;;;7.05;;
38843;SDS011;24596;48.080;8.362;2024-01-15T01:06:25;18.13;;;7.43;;
38843;SDS011;24596;48.080;8.362;2024-01-15T01:08:51;17.85;;;7.57;;
38843;SDS011;24596;48.080;8.362;2024-01-15T01:11:16;19.63;;;6.35;;
38843;SDS011;24596;48.080;8.362;2024-01-15T01:13:41;20.45;;;6.50;;
38843;SDS011;24596;48.080;8.362;2024-01-15T01:16:07;15.35;;;5.65;;
38843;SDS011;24596;48.080;8.362;2024-01-15T01:18:32;16.38;;;5.65;;
38843;SDS011;24596;48.080;8.362;2024-01-15T01:20:57;14.43;;;4.68;;
38843;SDS011;24596;48.080;8.362;2024-01-15T01:23:22;14.98;;;4.93;;
38843;SDS011;24596;48.080;8.362;2024-01-15T01:25:48;16.02;;;5.97;;
38843;SDS011;24596;48.080;8.362;2024-01-15T01:28:13;15.07;;;5.68;;
38843;SDS011;24596;48.080;8.362;2024-01-15T01:30:38;15.32;;;6.03;;
38843;SDS011;24596;48.080;8.362;2024-01-15T01:33:04;15.75;;;5.28;;
38843;SDS011;24596;48.080;8.362;2024-01-15T01:35:29;16.85;;;5.88;;
38843;SDS011;24596;48.080;8.362;2024-01-15T01:37:55;16.25;;;5.50;;
38843;SDS011;24596;48.080;8.362;2024-01-15T01:40:20;10.77;;;3.97;;
38843;SDS011;24596;48.080;8.362;2024-01-15T01:42:45;15.77;;;4.63;;
38843;SDS011;24596;48.080;8.362;2024-01-15T01:45:10;8.88;;;3.80;;
38843;SDS011;24596;48.080;8.362;2024-01-15T01:47:36;14.05;;;4.20;;
38843;SDS011;24596;48.080;8.362;2024-01-15T01:50:01;10.35;;;3.75;;
38843;SDS011;24596;48.080;8.362;2024-01-15T01:52:27;12.07;;;4.20;;
38843;SDS011;24596;48.080;8.362;2024-01-15T01:54:52;11.27;;;4.07;;
38843;SDS011;24596;48.080;8.362;2024-01-15T01:57:18;12.73;;;3.58;;
38843;SDS011;24596;48.080;8.362;2024-01-15T01:59:44;10.45;;;4.25;;
38843;SDS011;24596;48.080;8.362;2024-01-15T02:02:10;11.38;;;3.70;;
38843;SDS011;24596;48.080;8.362;2024-01-15T02:04:36;13.32;;;4.70;;
38843;SDS011;24596;48.080;8.362;2024-01-15T02:07:01;11.23;;;3.75;;
38843;SDS011;24596;48.080;8.362;2024-01-15T02:09:27;8.65;;;3.70;;
38843;SDS011;24596;48.080;8.362;2024-01-15T02:11:52;12.85;;;3.92;;
38843;SDS011;24596;48.080;8.362;2024-01-15T02:14:18;12.23;;;4.07;;
38843;SDS011;24596;48.080;8.362;2024-01-15T02:16:43;10.38;;;3.17;;
38843;SDS011;24596;48.080;8.362;2024-01-15T02:19:14;8.25;;;3.20;;
38843;SDS011;24596;48.080;8.362;2024-01-15T02:21:39;12.40;;;4.35;;
38843;SDS011;24596;48.080;8.362;2024-01-15T02:24:04;9.98;;;3.75;;
38843;SDS011;24596;48.080;8.362;2024-01-15T02:26:30;12.52;;;3.80;;
38843;SDS011;24596;48.080;8.362;2024-01-15T02:28:55;10.93;;;3.47;;
38843;SDS011;24596;48.080;8.362;2024-01-15T02:31:20;13.25;;;4.03;;
38843;SDS011;24596;48.080;8.362;2024-01-15T02:33:46;10.90;;;4.10;;
38843;SDS011;24596;48.080;8.362;2024-01-15T02:36:11;9.90;;;3.78;;
38843;SDS011;24596;48.080;8.362;2024-01-15T02:38:36;10.45;;;3.92;;
38843;SDS011;24596;48.080;8.362;2024-01-15T02:41:02;9.07;;;3.72;;
38843;SDS011;24596;48.080;8.362;2024-01-15T02:43:27;9.75;;;4.35;;
38843;SDS011;24596;48.080;8.362;2024-01-15T02:45:52;9.85;;;4.28;;
38843;SDS011;24596;48.080;8.362;2024-01-15T02:48:17;11.45;;;4.57;;
38843;SDS011;24596;48.080;8.362;2024-01-15T02:50:42;11.50;;;4.03;;
38843;SDS011;24596;48.080;8.362;2024-01-15T02:53:08;12.77;;;3.85;;
38843;SDS011;24596;48.080;8.362;2024-01-15T02:55:33;10.40;;;3.45;;
38843;SDS011;24596;48.080;8.362;2024-01-15T02:57:58;8.65;;;3.60;;
38843;SDS011;24596;48.080;8.362;2024-01-15T03:00:24;8.13;;;3.30;;
38843;SDS011;24596;48.080;8.362;2024-01-15T03:02:50;11.13;;;3.38;;
38843;SDS011;24596;48.080;8.362;2024-01-15T03:05:15;11.68;;;3.45;;
38843;SDS011;24596;48.080;8.362;2024-01-15T03:07:40;8.68;;;3.60;;
38843;SDS011;24596;48.080;8.362;2024-01-15T03:10:06;8.50;;;3.45;;
38843;SDS011;24596;48.080;8.362;2024-01-15T03:12:31;8.98;;;3.80;;
38843;SDS011;24596;48.080;8.362;2024-01-15T03:14:56;11.52;;;3.90;;
38843;SDS011;24596;48.080;8.362;2024-01-15T03:17:22;11.30;;;4.43;;
38843;SDS011;24596;48.080;8.362;2024-01-15T03:19:47;9.48;;;3.45;;
38843;SDS011;24596;48.080;8.362;2024-01-15T03:22:14;10.60;;;3.83;;
38843;SDS011;24596;48.080;8.362;2024-01-15T03:24:40;9.35;;;3.20;;
38843;SDS011;24596;48.080;8.362;2024-01-15T03:27:05;9.65;;;3.25;;
38843;SDS011;24596;48.080;8.362;2024-01-15T03:29:30;8.85;;;3.63;;
38843;SDS011;24596;48.080;8.362;2024-01-15T03:31:55;9.90;;;2.50;;
38843;SDS011;24596;48.080;8.362;2024-01-15T03:34:21;7.75;;;2.28;;
38843;SDS011;24596;48.080;8.362;2024-01-15T03:36:46;9.00;;;3.15;;
38843;SDS011;24596;48.080;8.362;2024-01-15T03:39:11;6.60;;;2.35;;
38843;SDS011;24596;48.080;8.362;2024-01-15T03:41:36;7.32;;;2.40;;
38843;SDS011;24596;48.080;8.362;2024-01-15T03:44:02;7.90;;;2.45;;
38843;SDS011;24596;48.080;8.362;2024-01-15T03:46:27;6.88;;;2.53;;
38843;SDS011;24596;48.080;8.362;2024-01-15T03:48:52;7.68;;;2.50;;
38843;SDS011;24596;48.080;8.362;2024-01-15T03:51:17;9.10;;;3.38;;
38843;SDS011;24596;48.080;8.362;2024-01-15T03:53:43;7.47;;;2.53;;
38843;SDS011;24596;48.080;8.362;2024-01-15T03:56:08;11.30;;;2.90;;
38843;SDS011;24596;48.080;8.362;2024-01-15T03:58:33;6.88;;;2.63;;
38843;SDS011;24596;48.080;8.362;2024-01-15T04:00:58;7.93;;;3.15;;
38843;SDS011;24596;48.080;8.362;2024-01-15T04:03:24;9.77;;;3.92;;
38843;SDS011;24596;48.080;8.362;2024-01-15T04:05:49;10.25;;;3.38;;
38843;SDS011;24596;48.080;8.362;2024-01-15T04:08:14;8.95;;;2.67;;
38843;SDS011;24596;48.080;8.362;2024-01-15T04:10:39;7.57;;;2.78;;
38843;SDS011;24596;48.080;8.362;2024-01-15T04:13:04;8.73;;;3.17;;
38843;SDS011;24596;48.080;8.362;2024-01-15T04:15:30;8.00;;;2.67;;
38843;SDS011;24596;48.080;8.362;2024-01-15T04:17:55;8.13;;;2.53;;
38843;SDS011;24596;48.080;8.362;2024-01-15T04:20:20;6.90;;;2.55;;
38843;SDS011;24596;48.080;8.362;2024-01-15T04:22:45;9.32;;;3.05;;
38843;SDS011;24596;48.080;8.362;2024-01-15T04:25:11;7.90;;;2.70;;
38843;SDS011;24596;48.080;8.362;2024-01-15T04:27:36;8.07;;;2.95;;
38843;SDS011;24596;48.080;8.362;2024-01-15T04:30:01;7.63;;;2.88;;
38843;SDS011;24596;48.080;8.362;2024-01-15T04:32:26;9.25;;;3.17;;
38843;SDS011;24596;48.080;8.362;2024-01-15T04:34:51;9.93;;;3.00;;
38843;SDS011;24596;48.080;8.362;2024-01-15T04:37:17;10.55;;;3.60;;
38843;SDS011;24596;48.080;8.362;2024-01-15T04:39:42;8.23;;;3.30;;
38843;SDS011;24596;48.080;8.362;2024-01-15T04:42:07;10.32;;;3.55;;
38843;SDS011;24596;48.080;8.362;2024-01-15T04:44:33;12.88;;;4.45;;
38843;SDS011;24596;48.080;8.362;2024-01-15T04:46:58;17.58;;;9.02;;
38843;SDS011;24596;48.080;8.362;2024-01-15T04:49:23;10.60;;;3.53;;
38843;SDS011;24596;48.080;8.362;2024-01-15T04:51:51;13.65;;;3.75;;
38843;SDS011;24596;48.080;8.362;2024-01-15T04:54:16;9.35;;;3.50;;
38843;SDS011;24596;48.080;8.362;2024-01-15T04:56:43;12.30;;;3.92;;
38843;SDS011;24596;48.080;8.362;2024-01-15T04:59:08;9.95;;;4.00;;
38843;SDS011;24596;48.080;8.362;2024-01-15T05:01:33;12.82;;;5.45;;
38843;SDS011;24596;48.080;8.362;2024-01-15T05:03:58;8.88;;;3.67;;
38843;SDS011;24596;48.080;8.362;2024-01-15T05:06:24;13.32;;;4.43;;
38843;SDS011;24596;48.080;8.362;2024-01-15T05:08:49;17.33;;;5.85;;
38843;SDS011;24596;48.080;8.362;2024-01-15T05:11:14;16.70;;;6.20;;
38843;SDS011;24596;48.080;8.362;2024-01-15T05:13:40;16.02;;;5.57;;
38843;SDS011;24596;48.080;8.362;2024-01-15T05:16:05;15.93;;;5.50;;
38843;SDS011;24596;48.080;8.362;2024-01-15T05:18:30;20.17;;;6.28;;
38843;SDS011;24596;48.080;8.362;2024-01-15T05:20:55;22.10;;;6.40;;
38843;SDS011;24596;48.080;8.362;2024-01-15T05:23:20;19.95;;;6.15;;
38843;SDS011;24596;48.080;8.362;2024-01-15T05:25:46;19.30;;;7.13;;
38843;SDS011;24596;48.080;8.362;2024-01-15T05:28:11;18.05;;;6.22;;
38843;SDS011;24596;48.080;8.362;2024-01-15T05:30:36;16.27;;;5.20;;
38843;SDS011;24596;48.080;8.362;2024-01-15T05:33:01;15.73;;;5.00;;
38843;SDS011;24596;48.080;8.362;2024-01-15T05:35:27;16.75;;;5.80;;
38843;SDS011;24596;48.080;8.362;2024-01-15T05:37:53;14.43;;;4.90;;
38843;SDS011;24596;48.080;8.362;2024-01-15T05:40:18;14.32;;;5.35;;
38843;SDS011;24596;48.080;8.362;2024-01-15T05:42:43;15.38;;;5.30;;
38843;SDS011;24596;48.080;8.362;2024-01-15T05:45:08;12.55;;;5.40;;
38843;SDS011;24596;48.080;8.362;2024-01-15T05:47:34;14.38;;;5.07;;
38843;SDS011;24596;48.080;8.362;2024-01-15T05:50:00;14.32;;;4.80;;
38843;SDS011;24596;48.080;8.362;2024-01-15T05:52:25;16.45;;;5.93;;
38843;SDS011;24596;48.080;8.362;2024-01-15T05:54:51;13.73;;;5.10;;
38843;SDS011;24596;48.080;8.362;2024-01-15T05:57:16;13.65;;;4.63;;
38843;SDS011;24596;48.080;8.362;2024-01-15T05:59:42;14.57;;;5.25;;
38843;SDS011;24596;48.080;8.362;2024-01-15T06:02:08;14.75;;;7.10;;
38843;SDS011;24596;48.080;8.362;2024-01-15T06:04:33;13.38;;;5.07;;
38843;SDS011;24596;48.080;8.362;2024-01-15T06:06:58;13.13;;;6.45;;
38843;SDS011;24596;48.080;8.362;2024-01-15T06:09:23;10.73;;;4.55;;
38843;SDS011;24596;48.080;8.362;2024-01-15T06:11:48;11.10;;;4.13;;
38843;SDS011;24596;48.080;8.362;2024-01-15T06:14:14;9.65;;;4.50;;
38843;SDS011;24596;48.080;8.362;2024-01-15T06:16:39;13.23;;;4.97;;
38843;SDS011;24596;48.080;8.362;2024-01-15T06:19:04;12.45;;;4.95;;
38843;SDS011;24596;48.080;8.362;2024-01-15T06:21:29;12.20;;;4.28;;
38843;SDS011;24596;48.080;8.362;2024-01-15T06:23:55;8.93;;;3.15;;
38843;SDS011;24596;48.080;8.362;2024-01-15T06:26:21;11.93;;;3.88;;
38843;SDS011;24596;48.080;8.362;2024-01-15T06:28:47;10.93;;;3.85;;
38843;SDS011;24596;48.080;8.362;2024-01-15T06:31:12;9.23;;;3.63;;
38843;SDS011;24596;48.080;8.362;2024-01-15T06:33:37;11.10;;;4.07;;
38843;SDS011;24596;48.080;8.362;2024-01-15T06:36:03;8.40;;;3.50;;
38843;SDS011;24596;48.080;8.362;2024-01-15T06:38:28;9.70;;;3.58;;
38843;SDS011;24596;48.080;8.362;2024-01-15T06:40:53;9.63;;;3.95;;
38843;SDS011;24596;48.080;8.362;2024-01-15T06:43:18;8.70;;;3.63;;
38843;SDS011;24596;48.080;8.362;2024-01-15T06:45:44;8.73;;;3.40;;
38843;SDS011;24596;48.080;8.362;2024-01-15T06:48:09;8.75;;;3.25;;
38843;SDS011;24596;48.080;8.362;2024-01-15T06:50:34;8.63;;;3.83;;
38843;SDS011;24596;48.080;8.362;2024-01-15T06:53:00;9.23;;;3.22;;
38843;SDS011;24596;48.080;8.362;2024-01-15T06:55:25;10.10;;;4.03;;
38843;SDS011;24596;48.080;8.362;2024-01-15T06:57:50;9.30;;;3.33;;
38843;SDS011;24596;48.080;8.362;2024-01-15T07:00:16;13.32;;;5.60;;
38843;SDS011;24596;48.080;8.362;2024-01-15T07:02:41;10.07;;;4.28;;
38843;SDS011;24596;48.080;8.362;2024-01-15T07:05:06;13.07;;;3.90;;
38843;SDS011;24596;48.080;8.362;2024-01-15T07:07:32;9.88;;;4.00;;
38843;SDS011;24596;48.080;8.362;2024-01-15T07:09:57;14.65;;;5.82;;
38843;SDS011;24596;48.080;8.362;2024-01-15T07:12:22;12.73;;;5.28;;
38843;SDS011;24596;48.080;8.362;2024-01-15T07:14:48;10.48;;;3.97;;
38843;SDS011;24596;48.080;8.362;2024-01-15T07:17:13;8.57;;;3.92;;
38843;SDS011;24596;48.080;8.362;2024-01-15T07:19:38;9.35;;;3.80;;
38843;SDS011;24596;48.080;8.362;2024-01-15T07:22:03;19.38;;;10.73;;
38843;SDS011;24596;48.080;8.362;2024-01-15T07:24:29;11.07;;;5.13;;
38843;SDS011;24596;48.080;8.362;2024-01-15T07:26:54;11.52;;;4.57;;
38843;SDS011;24596;48.080;8.362;2024-01-15T07:29:20;10.00;;;3.88;;
38843;SDS011;24596;48.080;8.362;2024-01-15T07:31:49;12.25;;;5.18;;
38843;SDS011;24596;48.080;8.362;2024-01-15T07:34:14;10.98;;;4.60;;
38843;SDS011;24596;48.080;8.362;2024-01-15T07:36:39;10.43;;;5.28;;
38843;SDS011;24596;48.080;8.362;2024-01-15T07:39:05;9.13;;;3.85;;
38843;SDS011;24596;48.080;8.362;2024-01-15T07:41:30;10.98;;;4.25;;
38843;SDS011;24596;48.080;8.362;2024-01-15T07:43:56;9.15;;;3.53;;
38843;SDS011;24596;48.080;8.362;2024-01-15T07:46:21;6.13;;;2.83;;
38843;SDS011;24596;48.080;8.362;2024-01-15T07:48:46;8.40;;;3.08;;
38843;SDS011;24596;48.080;8.362;2024-01-15T07:51:11;11.65;;;3.10;;
38843;SDS011;24596;48.080;8.362;2024-01-15T07:53:37;7.65;;;2.85;;
38843;SDS011;24596;48.080;8.362;2024-01-15T07:56:02;10.65;;;3.22;;
38843;SDS011;24596;48.080;8.362;2024-01-15T07:58:27;7.25;;;3.00;;
38843;SDS011;24596;48.080;8.362;2024-01-15T08:00:52;6.55;;;2.58;;
38843;SDS011;24596;48.080;8.362;2024-01-15T08:03:18;5.93;;;2.78;;
38843;SDS011;24596;48.080;8.362;2024-01-15T08:05:43;9.93;;;3.25;;
38843;SDS011;24596;48.080;8.362;2024-01-15T08:08:08;9.32;;;2.83;;
38843;SDS011;24596;48.080;8.362;2024-01-15T08:10:33;8.52;;;3.47;;
38843;SDS011;24596;48.080;8.362;2024-01-15T08:12:59;10.70;;;3.80;;
38843;SDS011;24596;48.080;8.362;2024-01-15T08:15:24;9.60;;;3.70;;
38843;SDS011;24596;48.080;8.362;2024-01-15T08:17:49;9.50;;;4.22;;
38843;SDS011;24596;48.080;8.362;2024-01-15T08:20:15;12.38;;;3.85;;
38843;SDS011;24596;48.080;8.362;2024-01-15T08:22:41;11.20;;;4.00;;
38843;SDS011;24596;48.080;8.362;2024-01-15T08:25:06;13.27;;;4.38;;
38843;SDS011;24596;48.080;8.362;2024-01-15T08:27:31;9.60;;;3.25;;
38843;SDS011;24596;48.080;8.362;2024-01-15T08:29:57;10.77;;;4.03;;
38843;SDS011;24596;48.080;8.362;2024-01-15T08:32:22;6.82;;;3.00;;
38843;SDS011;24596;48.080;8.362;2024-01-15T08:34:47;11.00;;;3.65;;
38843;SDS011;24596;48.080;8.362;2024-01-15T08:37:14;8.98;;;3.55;;
38843;SDS011;24596;48.080;8.362;2024-01-15T08:39:39;8.75;;;2.85;;
38843;SDS011;24596;48.080;8.362;2024-01-15T08:42:05;11.63;;;3.75;;
38843;SDS011;24596;48.080;8.362;2024-01-15T08:44:30;13.15;;;4.60;;
38843;SDS011;24596;48.080;8.362;2024-01-15T08:46:55;10.55;;;3.42;;
38843;SDS011;24596;48.080;8.362;2024-01-15T08:49:20;10.18;;;3.58;;
38843;SDS011;24596;48.080;8.362;2024-01-15T08:51:46;9.25;;;3.13;;
38843;SDS011;24596;48.080;8.362;2024-01-15T08:54:13;12.35;;;4.20;;
38843;SDS011;24596;48.080;8.362;2024-01-15T08:56:39;9.63;;;3.67;;
38843;SDS011;24596;48.080;8.362;2024-01-15T08:59:05;9.70;;;3.72;;
38843;SDS011;24596;48.080;8.362;2024-01-15T09:01:30;10.52;;;3.70;;
38843;SDS011;24596;48.080;8.362;2024-01-15T09:03:55;7.22;;;3.15;;
38843;SDS011;24596;48.080;8.362;2024-01-15T09:06:21;10.43;;;3.47;;
38843;SDS011;24596;48.080;8.362;2024-01-15T09:08:46;11.52;;;3.47;;
38843;SDS011;24596;48.080;8.362;2024-01-15T09:11:12;5.80;;;2.33;;
38843;SDS011;24596;48.080;8.362;2024-01-15T09:13:37;8.88;;;2.90;;
38843;SDS011;24596;48.080;8.362;2024-01-15T09:16:03;8.82;;;3.38;;
38843;SDS011;24596;48.080;8.362;2024-01-15T09:18:28;7.93;;;2.95;;
38843;SDS011;24596;48.080;8.362;2024-01-15T09:20:54;10.18;;;3.55;;
38843;SDS011;24596;48.080;8.362;2024-01-15T09:23:19;8.48;;;3.45;;
38843;SDS011;24596;48.080;8.362;2024-01-15T09:25:45;9.73;;;3.28;;
38843;SDS011;24596;48.080;8.362;2024-01-15T09:28:10;11.20;;;3.85;;
38843;SDS011;24596;48.080;8.362;2024-01-15T09:30:35;10.50;;;3.42;;
38843;SDS011;24596;48.080;8.362;2024-01-15T09:33:01;11.43;;;3.13;;
38843;SDS011;24596;48.080;8.362;2024-01-15T09:35:26;9.20;;;3.42;;
38843;SDS011;24596;48.080;8.362;2024-01-15T09:37:52;12.40;;;3.53;;
38843;SDS011;24596;48.080;8.362;2024-01-15T09:40:17;9.98;;;3.58;;
38843;SDS011;24596;48.080;8.362;2024-01-15T09:42:43;10.95;;;3.38;;
38843;SDS011;24596;48.080;8.362;2024-01-15T09:45:09;9.30;;;3.22;;
38843;SDS011;24596;48.080;8.362;2024-01-15T09:47:35;9.30;;;3.22;;
38843;SDS011;24596;48.080;8.362;2024-01-15T09:50:00;6.72;;;3.00;;
38843;SDS011;24596;48.080;8.362;2024-01-15T09:52:25;8.55;;;2.75;;
38843;SDS011;24596;48.080;8.362;2024-01-15T09:54:51;8.52;;;2.95;;
38843;SDS011;24596;48.080;8.362;2024-01-15T09:57:17;6.80;;;2.60;;
38843;SDS011;24596;48.080;8.362;2024-01-15T09:59:42;7.25;;;2.80;;
38843;SDS011;24596;48.080;8.362;2024-01-15T10:02:08;8.15;;;2.53;;
38843;SDS011;24596;48.080;8.362;2024-01-15T10:04:34;5.05;;;1.70;;
38843;SDS011;24596;48.080;8.362;2024-01-15T10:06:59;7.22;;;2.92;;
38843;SDS011;24596;48.080;8.362;2024-01-15T10:09:25;6.40;;;2.40;;
38843;SDS011;24596;48.080;8.362;2024-01-15T10:11:50;7.13;;;2.75;;
38843;SDS011;24596;48.080;8.362;2024-01-15T10:14:16;12.93;;;2.10;;
38843;SDS011;24596;48.080;8.362;2024-01-15T10:16:41;6.50;;;2.33;;
38843;SDS011;24596;48.080;8.362;2024-01-15T10:19:09;7.53;;;2.63;;
38843;SDS011;24596;48.080;8.362;2024-01-15T10:21:35;7.55;;;2.70;;
38843;SDS011;24596;48.080;8.362;2024-01-15T10:24:01;7.50;;;2.33;;
38843;SDS011;24596;48.080;8.362;2024-01-15T10:26:27;6.95;;;2.80;;
38843;SDS011;24596;48.080;8.362;2024-01-15T10:28:52;6.85;;;2.38;;
38843;SDS011;24596;48.080;8.362;2024-01-15T10:31:18;8.57;;;2.90;;
38843;SDS011;24596;48.080;8.362;2024-01-15T10:33:44;5.18;;;1.90;;
38843;SDS011;24596;48.080;8.362;2024-01-15T10:36:09;7.15;;;2.78;;
38843;SDS011;24596;48.080;8.362;2024-01-15T10:38:35;5.65;;;2.17;;
38843;SDS011;24596;48.080;8.362;2024-01-15T10:41:01;7.35;;;2.88;;
38843;SDS011;24596;48.080;8.362;2024-01-15T10:43:26;5.25;;;2.03;;
38843;SDS011;24596;48.080;8.362;2024-01-15T10:45:51;7.15;;;2.90;;
38843;SDS011;24596;48.080;8.362;2024-01-15T10:48:17;5.10;;;1.50;;
38843;SDS011;24596;48.080;8.362;2024-01-15T10:50:46;4.70;;;1.70;;
38843;SDS011;24596;48.080;8.362;2024-01-15T10:53:13;4.10;;;1.77;;
38843;SDS011;24596;48.080;8.362;2024-01-15T10:55:38;4.95;;;1.65;;
38843;SDS011;24596;48.080;8.362;2024-01-15T10:58:04;6.40;;;2.17;;
38843;SDS011;24596;48.080;8.362;2024-01-15T11:00:30;5.78;;;1.83;;
38843;SDS011;24596;48.080;8.362;2024-01-15T11:02:55;4.43;;;1.80;;
38843;SDS011;24596;48.080;8.362;2024-01-15T11:05:21;3.80;;;1.65;;
38843;SDS011;24596;48.080;8.362;2024-01-15T11:07:47;8.80;;;1.80;;
38843;SDS011;24596;48.080;8.362;2024-01-15T11:12:57;5.85;;;2.13;;
38843;SDS011;24596;48.080;8.362;2024-01-15T11:15:22;4.18;;;1.45;;
38843;SDS011;24596;48.080;8.362;2024-01-15T11:18:00;5.30;;;1.92;;
38843;SDS011;24596;48.080;8.362;2024-01-15T11:20:26;4.97;;;1.80;;
38843;SDS011;24596;48.080;8.362;2024-01-15T11:22:51;7.53;;;2.33;;
38843;SDS011;24596;48.080;8.362;2024-01-15T11:25:20;6.68;;;2.10;;
38843;SDS011;24596;48.080;8.362;2024-01-15T11:27:46;6.60;;;2.28;;
38843;SDS011;24596;48.080;8.362;2024-01-15T11:30:17;5.15;;;1.90;;
38843;SDS011;24596;48.080;8.362;2024-01-15T11:32:45;6.53;;;2.15;;
38843;SDS011;24596;48.080;8.362;2024-01-15T11:35:11;8.18;;;3.30;;
38843;SDS011;24596;48.080;8.362;2024-01-15T11:40:17;8.32;;;2.70;;
38843;SDS011;24596;48.080;8.362;2024-01-15T11:42:43;5.75;;;2.10;;
38843;SDS011;24596;48.080;8.362;2024-01-15T11:45:09;6.18;;;2.33;;
38843;SDS011;24596;48.080;8.362;2024-01-15T11:48:03;9.00;;;2.30;;
38843;SDS011;24596;48.080;8.362;2024-01-15T11:50:20;7.68;;;2.55;;
38843;SDS011;24596;48.080;8.362;2024-01-15T11:52:49;8.70;;;3.13;;
38843;SDS011;24596;48.080;8.362;2024-01-15T11:55:19;8.65;;;3.20;;
38843;SDS011;24596;48.080;8.362;2024-01-15T11:57:49;11.15;;;3.72;;
38843;SDS011;24596;48.080;8.362;2024-01-15T12:00:15;11.15;;;3.60;;
38843;SDS011;24596;48.080;8.362;2024-01-15T12:02:44;7.55;;;2.55;;
38843;SDS011;24596;48.080;8.362;2024-01-15T12:05:10;6.72;;;2.72;;
38843;SDS011;24596;48.080;8.362;2024-01-15T12:07:37;9.07;;;3.60;;
38843;SDS011;24596;48.080;8.362;2024-01-15T12:10:03;11.15;;;3.85;;
38843;SDS011;24596;48.080;8.362;2024-01-15T12:14:57;11.23;;;3.60;;
38843;SDS011;24596;48.080;8.362;2024-01-15T12:17:23;8.57;;;2.80;;
38843;SDS011;24596;48.080;8.362;2024-01-15T12:19:48;7.80;;;2.90;;
38843;SDS011;24596;48.080;8.362;2024-01-15T12:22:13;10.23;;;3.30;;
38843;SDS011;24596;48.080;8.362;2024-01-15T12:24:40;11.52;;;3.58;;
38843;SDS011;24596;48.080;8.362;2024-01-15T12:27:05;7.15;;;2.67;;
38843;SDS011;24596;48.080;8.362;2024-01-15T12:29:31;7.25;;;2.72;;
38843;SDS011;24596;48.080;8.362;2024-01-15T12:31:57;10.88;;;3.85;;
38843;SDS011;24596;48.080;8.362;2024-01-15T12:34:22;11.65;;;4.18;;
38843;SDS011;24596;48.080;8.362;2024-01-15T12:36:47;8.73;;;3.30;;
38843;SDS011;24596;48.080;8.362;2024-01-15T12:39:12;6.95;;;2.58;;
38843;SDS011;24596;48.080;8.362;2024-01-15T12:41:38;12.38;;;4.07;;
38843;SDS011;24596;48.080;8.362;2024-01-15T12:44:04;12.63;;;4.25;;
38843;SDS011;24596;48.080;8.362;2024-01-15T12:46:29;8.98;;;3.60;;
38843;SDS011;24596;48.080;8.362;2024-01-15T12:48:55;12.07;;;4.13;;
38843;SDS011;24596;48.080;8.362;2024-01-15T12:51:24;12.32;;;4.60;;
38843;SDS011;24596;48.080;8.362;2024-01-15T12:53:49;8.82;;;3.53;;
38843;SDS011;24596;48.080;8.362;2024-01-15T12:56:14;10.27;;;4.30;;
38843;SDS011;24596;48.080;8.362;2024-01-15T12:58:39;9.07;;;3.67;;
38843;SDS011;24596;48.080;8.362;2024-01-15T13:01:05;11.93;;;5.03;;
38843;SDS011;24596;48.080;8.362;2024-01-15T13:03:30;14.13;;;5.03;;
38843;SDS011;24596;48.080;8.362;2024-01-15T13:05:55;10.20;;;4.18;;
38843;SDS011;24596;48.080;8.362;2024-01-15T13:08:21;12.50;;;4.85;;
38843;SDS011;24596;48.080;8.362;2024-01-15T13:10:48;12.07;;;4.20;;
38843;SDS011;24596;48.080;8.362;2024-01-15T13:13:14;11.65;;;3.90;;
38843;SDS011;24596;48.080;8.362;2024-01-15T13:15:39;12.65;;;3.92;;
38843;SDS011;24596;48.080;8.362;2024-01-15T13:18:04;9.15;;;3.38;;
38843;SDS011;24596;48.080;8.362;2024-01-15T13:20:29;8.70;;;4.00;;
38843;SDS011;24596;48.080;8.362;2024-01-15T13:22:55;10.20;;;3.67;;
38843;SDS011;24596;48.080;8.362;2024-01-15T13:25:20;12.82;;;3.88;;
38843;SDS011;24596;48.080;8.362;2024-01-15T13:27:45;8.70;;;3.47;;
38843;SDS011;24596;48.080;8.362;2024-01-15T13:30:11;8.52;;;3.85;;
38843;SDS011;24596;48.080;8.362;2024-01-15T13:32:37;10.55;;;3.63;;
38843;SDS011;24596;48.080;8.362;2024-01-15T13:35:02;9.15;;;2.65;;
38843;SDS011;24596;48.080;8.362;2024-01-15T13:37:30;8.63;;;3.65;;
38843;SDS011;24596;48.080;8.362;2024-01-15T13:39:55;9.90;;;3.28;;
38843;SDS011;24596;48.080;8.362;2024-01-15T13:42:21;6.85;;;3.30;;
38843;SDS011;24596;48.080;8.362;2024-01-15T13:44:52;8.80;;;3.17;;
38843;SDS011;24596;48.080;8.362;2024-01-15T13:47:17;9.07;;;3.28;;
38843;SDS011;24596;48.080;8.362;2024-01-15T13:49:42;10.45;;;3.22;;
38843;SDS011;24596;48.080;8.362;2024-01-15T13:52:07;10.45;;;3.85;;
38843;SDS011;24596;48.080;8.362;2024-01-15T13:54:33;10.45;;;3.60;;
38843;SDS011;24596;48.080;8.362;2024-01-15T13:56:58;10.98;;;3.42;;
38843;SDS011;24596;48.080;8.362;2024-01-15T13:59:24;8.98;;;3.78;;
38843;SDS011;24596;48.080;8.362;2024-01-15T14:01:49;8.55;;;3.70;;
38843;SDS011;24596;48.080;8.362;2024-01-15T14:04:14;9.48;;;3.63;;
38843;SDS011;24596;48.080;8.362;2024-01-15T14:06:39;8.18;;;2.97;;
38843;SDS011;24596;48.080;8.362;2024-01-15T14:09:04;10.68;;;4.15;;
38843;SDS011;24596;48.080;8.362;2024-01-15T14:11:30;8.68;;;3.88;;
38843;SDS011;24596;48.080;8.362;2024-01-15T14:13:55;10.60;;;4.05;;
38843;SDS011;24596;48.080;8.362;2024-01-15T14:16:21;6.65;;;2.42;;
38843;SDS011;24596;48.080;8.362;2024-01-15T14:18:46;7.32;;;2.67;;
38843;SDS011;24596;48.080;8.362;2024-01-15T14:21:11;8.63;;;2.80;;
38843;SDS011;24596;48.080;8.362;2024-01-15T14:23:37;8.07;;;3.22;;
38843;SDS011;24596;48.080;8.362;2024-01-15T14:26:02;9.52;;;3.70;;
38843;SDS011;24596;48.080;8.362;2024-01-15T14:28:29;8.43;;;3.00;;
38843;SDS011;24596;48.080;8.362;2024-01-15T14:30:54;8.52;;;3.53;;
38843;SDS011;24596;48.080;8.362;2024-01-15T14:33:23;8.27;;;3.10;;
38843;SDS011;24596;48.080;8.362;2024-01-15T14:35:48;8.48;;;2.90;;
38843;SDS011;24596;48.080;8.362;2024-01-15T14:38:13;8.18;;;2.75;;